createdAt,value
2019-05-26T00:01:04.781Z,15.43
2019-05-26T00:03:33.315Z,14.03
2019-05-26T00:06:01.875Z,14.40
2019-05-26T00:08:30.485Z,17.02
2019-05-26T00:10:58.971Z,15.00
2019-05-26T00:13:27.575Z,14.60
2019-05-26T00:15:56.132Z,15.37
2019-05-26T00:18:24.664Z,15.37
2019-05-26T00:20:53.201Z,15.47
2019-05-26T00:23:21.705Z,15.07
2019-05-26T00:25:50.234Z,16.90
2019-05-26T00:28:19.915Z,17.70
2019-05-26T00:30:48.445Z,16.63
2019-05-26T00:33:17.056Z,18.70
2019-05-26T00:35:45.622Z,17.80
2019-05-26T00:38:14.150Z,19.00
2019-05-26T00:40:42.682Z,18.43
2019-05-26T00:43:11.637Z,18.87
2019-05-26T00:45:40.208Z,19.80
2019-05-26T00:48:08.883Z,18.90
2019-05-26T00:50:37.500Z,20.03
2019-05-26T00:53:06.163Z,20.43
2019-05-26T00:55:34.721Z,20.53
2019-05-26T00:58:03.262Z,19.23
2019-05-26T01:00:37.684Z,23.40
2019-05-26T01:03:06.323Z,21.43
2019-05-26T01:05:34.857Z,22.77
2019-05-26T01:08:06.665Z,21.67
2019-05-26T01:10:33.824Z,20.00
2019-05-26T01:13:02.321Z,22.40
2019-05-26T01:15:30.897Z,21.70
2019-05-26T01:17:59.418Z,20.73
2019-05-26T01:20:28.080Z,22.87
2019-05-26T01:22:56.582Z,22.17
2019-05-26T01:25:26.694Z,24.07
2019-05-26T01:27:55.199Z,22.20
2019-05-26T01:30:26.919Z,23.90
2019-05-26T01:32:55.403Z,23.37
2019-05-26T01:35:23.954Z,25.33
2019-05-26T01:37:52.568Z,26.43
2019-05-26T01:40:22.649Z,24.93
2019-05-26T01:42:51.271Z,26.03
2019-05-26T01:45:19.846Z,26.53
2019-05-26T01:47:48.432Z,27.33
2019-05-26T01:50:17.026Z,26.70
2019-05-26T01:52:45.591Z,27.83
2019-05-26T01:55:14.122Z,27.50
2019-05-26T01:57:42.639Z,28.33
2019-05-26T02:00:12.491Z,28.17
2019-05-26T02:02:41.026Z,29.03
2019-05-26T02:05:09.616Z,37.97
2019-05-26T02:07:38.502Z,32.30
2019-05-26T02:10:07.155Z,32.90
2019-05-26T02:12:35.735Z,33.43
2019-05-26T02:15:04.720Z,34.50
2019-05-26T02:17:33.298Z,35.73
2019-05-26T02:20:01.860Z,34.00
2019-05-26T02:22:30.390Z,35.67
2019-05-26T02:24:58.884Z,34.53
2019-05-26T02:27:27.453Z,35.03
2019-05-26T02:29:55.980Z,36.47
2019-05-26T02:32:24.496Z,35.10
2019-05-26T02:34:53.087Z,36.50
2019-05-26T02:37:21.635Z,36.10
2019-05-26T02:39:50.278Z,35.23
2019-05-26T02:42:18.827Z,36.87
2019-05-26T02:44:47.399Z,37.53
2019-05-26T02:47:17.989Z,37.40
2019-05-26T02:49:46.513Z,38.73
2019-05-26T02:52:15.042Z,38.43
2019-05-26T02:54:43.641Z,37.00
2019-05-26T02:57:12.189Z,43.17
2019-05-26T02:59:40.745Z,36.73
2019-05-26T03:02:09.305Z,36.40
2019-05-26T03:04:38.443Z,37.30
2019-05-26T03:07:06.984Z,37.30
2019-05-26T03:09:37.051Z,37.73
2019-05-26T03:12:06.208Z,35.67
2019-05-26T03:14:37.702Z,37.00
2019-05-26T03:17:06.280Z,37.10
2019-05-26T03:19:35.412Z,35.73
2019-05-26T03:22:04.583Z,36.13
2019-05-26T03:24:33.237Z,35.50
2019-05-26T03:27:01.751Z,35.03
2019-05-26T03:29:30.319Z,36.00
2019-05-26T03:31:58.924Z,35.63
2019-05-26T03:34:27.553Z,35.00
2019-05-26T03:36:56.174Z,33.43
2019-05-26T03:39:42.572Z,33.97
2019-05-26T03:41:54.976Z,32.87
2019-05-26T03:44:23.514Z,34.77
2019-05-26T03:46:52.042Z,33.20
2019-05-26T03:49:20.566Z,33.77
2019-05-26T03:51:49.322Z,34.07
2019-05-26T03:54:17.814Z,32.00
2019-05-26T03:56:46.376Z,38.55
2019-05-26T03:59:14.983Z,33.63
2019-05-26T04:01:43.608Z,35.15
2019-05-26T04:04:12.129Z,31.30
2019-05-26T04:06:40.867Z,29.37
2019-05-26T04:09:09.373Z,28.10
2019-05-26T04:11:37.918Z,27.90
2019-05-26T04:14:06.468Z,28.03
2019-05-26T04:16:35.038Z,29.33
2019-05-26T04:19:03.666Z,27.33
2019-05-26T04:21:32.162Z,27.20
2019-05-26T04:24:00.697Z,27.20
2019-05-26T04:26:29.293Z,26.27
2019-05-26T04:28:57.910Z,26.60
2019-05-26T04:31:26.396Z,25.20
2019-05-26T04:33:54.924Z,26.23
2019-05-26T04:36:23.437Z,24.90
2019-05-26T04:38:51.972Z,24.77
2019-05-26T04:41:20.489Z,24.33
2019-05-26T04:43:49.682Z,23.37
2019-05-26T04:46:18.826Z,23.70
2019-05-26T04:48:47.887Z,23.77
2019-05-26T04:51:17.020Z,22.10
2019-05-26T04:53:46.075Z,25.40
2019-05-26T04:56:15.195Z,23.63
2019-05-26T04:58:43.737Z,23.33
2019-05-26T05:01:12.253Z,27.15
2019-05-26T05:03:40.705Z,23.53
2019-05-26T05:06:09.282Z,22.90
2019-05-26T05:08:37.886Z,23.90
2019-05-26T05:11:06.404Z,23.07
2019-05-26T05:13:34.924Z,21.97
2019-05-26T05:16:03.480Z,22.23
2019-05-26T05:18:31.991Z,21.00
2019-05-26T05:21:00.626Z,21.10
2019-05-26T05:23:29.120Z,22.00
2019-05-26T05:25:57.673Z,22.70
2019-05-26T05:28:26.080Z,21.80
2019-05-26T05:30:54.629Z,22.77
2019-05-26T05:33:23.236Z,21.07
2019-05-26T05:35:52.454Z,20.50
2019-05-26T05:38:21.558Z,21.67
2019-05-26T05:40:59.414Z,22.57
2019-05-26T05:43:21.441Z,20.67
2019-05-26T05:45:50.539Z,21.30
2019-05-26T05:48:19.657Z,21.10
2019-05-26T05:50:48.808Z,20.20
2019-05-26T05:53:17.871Z,20.67
2019-05-26T05:55:47.001Z,19.27
2019-05-26T05:58:16.067Z,19.63
2019-05-26T06:00:45.192Z,22.17
2019-05-26T06:03:14.346Z,18.97
2019-05-26T06:05:43.546Z,17.03
2019-05-26T06:08:12.656Z,17.97
2019-05-26T06:10:41.762Z,16.33
2019-05-26T06:13:10.840Z,14.60
2019-05-26T06:15:39.947Z,15.77
2019-05-26T06:18:09.014Z,15.73
2019-05-26T06:20:38.127Z,16.17
2019-05-26T06:23:07.197Z,14.73
2019-05-26T06:25:36.249Z,15.00
2019-05-26T06:28:05.419Z,14.77
2019-05-26T06:30:34.507Z,14.50
2019-05-26T06:33:03.661Z,13.80
2019-05-26T06:35:33.188Z,12.67
2019-05-26T06:38:02.385Z,13.47
2019-05-26T06:40:31.499Z,12.90
2019-05-26T06:43:00.550Z,12.63
2019-05-26T06:45:29.626Z,11.10
2019-05-26T06:47:58.788Z,9.73
2019-05-26T06:50:27.986Z,9.70
2019-05-26T06:52:57.086Z,9.80
2019-05-26T06:55:26.215Z,8.90
2019-05-26T06:57:55.288Z,8.87
2019-05-26T07:00:24.505Z,8.27
2019-05-26T07:02:53.619Z,8.30
2019-05-26T07:05:22.706Z,8.80
2019-05-26T07:07:51.824Z,8.13
2019-05-26T07:10:20.903Z,8.37
2019-05-26T07:12:50.031Z,8.27
2019-05-26T07:15:19.136Z,7.63
2019-05-26T07:17:48.186Z,7.93
2019-05-26T07:20:17.291Z,7.77
2019-05-26T07:22:46.342Z,7.03
2019-05-26T07:25:15.426Z,7.23
2019-05-26T07:27:44.520Z,6.73
2019-05-26T07:30:14.406Z,7.03
2019-05-26T07:32:43.476Z,6.47
2019-05-26T07:35:13.077Z,5.97
2019-05-26T07:37:42.278Z,5.50
2019-05-26T07:40:11.649Z,5.13
2019-05-26T07:42:40.653Z,4.37
2019-05-26T07:45:11.637Z,4.70
2019-05-26T07:47:40.880Z,4.47
2019-05-26T07:50:10.103Z,3.93
2019-05-26T07:52:39.192Z,3.90
2019-05-26T07:55:08.695Z,3.70
2019-05-26T07:57:37.849Z,3.60
2019-05-26T08:00:08.383Z,3.30
2019-05-26T08:02:37.490Z,2.80
2019-05-26T08:05:06.664Z,3.13
2019-05-26T08:07:35.763Z,2.97
2019-05-26T08:10:05.553Z,2.70
2019-05-26T08:12:34.734Z,2.50
2019-05-26T08:15:04.257Z,2.17
2019-05-26T08:17:34.252Z,2.07
2019-05-26T08:20:03.783Z,1.80
2019-05-26T08:22:32.982Z,1.80
2019-05-26T08:25:02.061Z,1.97
2019-05-26T08:27:31.161Z,1.87
2019-05-26T08:30:00.136Z,2.10
2019-05-26T08:32:29.247Z,2.30
2019-05-26T08:34:58.342Z,1.77
2019-05-26T08:37:27.344Z,1.90
2019-05-26T08:39:58.092Z,2.03
2019-05-26T08:42:41.837Z,2.30
2019-05-26T08:44:58.053Z,2.20
2019-05-26T08:47:27.177Z,1.80
2019-05-26T08:49:56.183Z,1.80
2019-05-26T08:52:25.234Z,1.70
2019-05-26T08:54:54.335Z,2.30
2019-05-26T08:57:23.427Z,2.35
2019-05-26T08:59:52.525Z,1.73
2019-05-26T09:02:21.640Z,2.40
2019-05-26T09:04:50.780Z,2.23
2019-05-26T09:07:19.914Z,1.90
2019-05-26T09:09:49.066Z,1.97
2019-05-26T09:12:18.218Z,1.80
2019-05-26T09:14:47.268Z,2.00
2019-05-26T09:17:16.340Z,1.73
2019-05-26T09:19:45.449Z,2.10
2019-05-26T09:22:14.555Z,2.20
2019-05-26T09:24:43.748Z,2.10
2019-05-26T09:27:12.867Z,1.97
2019-05-26T09:29:42.029Z,2.40
2019-05-26T09:32:11.216Z,1.90
2019-05-26T09:34:40.326Z,2.10
2019-05-26T09:37:09.431Z,2.37
2019-05-26T09:39:38.569Z,2.47
2019-05-26T09:42:07.689Z,2.20
2019-05-26T09:44:36.860Z,2.30
2019-05-26T09:47:05.934Z,2.37
2019-05-26T09:49:35.023Z,2.47
2019-05-26T09:52:04.091Z,2.30
2019-05-26T09:54:33.186Z,3.00
2019-05-26T09:57:02.271Z,2.17
2019-05-26T09:59:31.345Z,2.60
2019-05-26T10:02:00.416Z,2.37
2019-05-26T10:04:29.504Z,2.27
2019-05-26T10:06:58.626Z,2.03
2019-05-26T10:09:27.705Z,2.20
2019-05-26T10:11:56.790Z,2.40
2019-05-26T10:14:25.886Z,2.40
2019-05-26T10:16:55.048Z,2.07
2019-05-26T10:19:24.109Z,2.20
2019-05-26T10:21:53.203Z,2.43
2019-05-26T10:24:22.220Z,2.13
2019-05-26T10:26:51.239Z,2.20
2019-05-26T10:29:20.377Z,2.30
2019-05-26T10:31:49.546Z,2.30
2019-05-26T10:34:18.746Z,2.40
2019-05-26T10:36:47.824Z,2.27
2019-05-26T10:39:16.975Z,3.92
2019-05-26T10:41:46.151Z,2.73
2019-05-26T10:44:22.137Z,3.60
2019-05-26T10:46:51.238Z,2.40
2019-05-26T10:49:20.323Z,2.43
2019-05-26T10:51:49.415Z,2.30
2019-05-26T10:54:18.490Z,2.23
2019-05-26T10:56:56.669Z,2.17
2019-05-26T10:59:25.940Z,2.30
2019-05-26T11:01:55.532Z,2.03
2019-05-26T11:04:24.752Z,3.30
2019-05-26T11:06:53.839Z,2.27
2019-05-26T11:09:23.170Z,2.30
2019-05-26T11:11:52.267Z,3.30
2019-05-26T11:14:21.475Z,2.30
2019-05-26T11:16:51.175Z,2.23
2019-05-26T11:19:20.521Z,2.27
2019-05-26T11:21:49.658Z,1.93
2019-05-26T11:24:22.300Z,2.10
2019-05-26T11:26:51.540Z,2.07
2019-05-26T11:29:30.003Z,2.07
2019-05-26T11:31:59.589Z,2.63
2019-05-26T11:34:30.174Z,2.50
2019-05-26T11:36:59.492Z,2.80
2019-05-26T11:39:29.304Z,2.30
2019-05-26T11:42:12.189Z,2.67
2019-05-26T11:44:29.528Z,2.87
2019-05-26T11:46:58.712Z,3.10
2019-05-26T11:49:27.850Z,3.40
2019-05-26T11:51:57.036Z,3.13
2019-05-26T11:54:26.262Z,3.20
2019-05-26T11:56:55.410Z,4.03
2019-05-26T11:59:27.005Z,3.67
2019-05-26T12:01:56.385Z,3.40
2019-05-26T12:04:26.449Z,3.60
2019-05-26T12:06:55.651Z,3.53
2019-05-26T12:09:24.828Z,3.00
2019-05-26T12:11:53.943Z,3.30
2019-05-26T12:14:34.205Z,3.77
2019-05-26T12:16:53.847Z,4.10
2019-05-26T12:19:22.913Z,6.00
2019-05-26T12:21:52.049Z,3.50
2019-05-26T12:24:21.136Z,3.73
2019-05-26T12:26:51.274Z,3.43
2019-05-26T12:29:20.378Z,3.40
2019-05-26T12:31:49.492Z,3.00
2019-05-26T12:34:18.467Z,3.47
2019-05-26T12:36:47.571Z,3.83
2019-05-26T12:39:16.671Z,3.58
2019-05-26T12:41:46.078Z,3.50
2019-05-26T12:44:15.184Z,5.00
2019-05-26T12:46:44.282Z,4.93
2019-05-26T12:49:13.360Z,3.37
2019-05-26T12:51:42.455Z,3.97
2019-05-26T12:54:11.527Z,4.07
2019-05-26T12:56:40.649Z,3.10
2019-05-26T12:59:09.729Z,3.50
2019-05-26T13:01:38.954Z,3.70
2019-05-26T13:04:08.212Z,3.23
2019-05-26T13:06:37.506Z,3.20
2019-05-26T13:09:09.253Z,3.20
2019-05-26T13:11:40.378Z,3.63
2019-05-26T13:14:09.519Z,3.43
2019-05-26T13:16:38.629Z,3.00
2019-05-26T13:19:07.690Z,3.30
2019-05-26T13:21:36.849Z,3.67
2019-05-26T13:24:06.444Z,8.23
2019-05-26T13:26:35.512Z,7.80
2019-05-26T13:29:04.710Z,10.55
2019-05-26T13:31:33.830Z,3.87
2019-05-26T13:34:02.919Z,5.27
2019-05-26T13:36:32.012Z,4.83
2019-05-26T13:39:03.622Z,3.83
2019-05-26T13:41:32.731Z,7.23
2019-05-26T13:44:01.877Z,3.90
2019-05-26T13:46:31.447Z,6.63
2019-05-26T13:49:00.575Z,5.23
2019-05-26T13:51:50.400Z,11.53
2019-05-26T13:54:29.046Z,9.13
2019-05-26T13:57:00.125Z,3.00
2019-05-26T13:59:31.113Z,3.47
2019-05-26T14:02:00.305Z,3.80
2019-05-26T14:04:29.409Z,9.60
2019-05-26T14:07:15.089Z,9.93
2019-05-26T14:09:44.663Z,16.87
2019-05-26T14:12:25.299Z,9.83
2019-05-26T14:14:55.091Z,3.40
2019-05-26T14:17:25.271Z,9.53
2019-05-26T14:19:53.859Z,3.47
2019-05-26T14:22:36.399Z,7.40
2019-05-26T14:25:07.855Z,9.40
2019-05-26T14:27:37.461Z,5.80
2019-05-26T14:30:10.025Z,3.73
2019-05-26T14:32:39.510Z,9.73
2019-05-26T14:35:08.736Z,4.30
2019-05-26T14:37:38.042Z,3.60
2019-05-26T14:40:08.197Z,2.90
2019-05-26T14:42:37.424Z,4.17
2019-05-26T14:45:07.039Z,3.30
2019-05-26T14:47:36.116Z,3.80
2019-05-26T14:50:05.820Z,3.30
2019-05-26T14:52:34.983Z,3.63
2019-05-26T14:55:06.772Z,3.17
2019-05-26T14:57:35.918Z,3.60
2019-05-26T15:00:05.798Z,3.27
2019-05-26T15:02:35.186Z,3.40
2019-05-26T15:05:04.935Z,3.37
2019-05-26T15:07:42.862Z,3.63
2019-05-26T15:10:12.214Z,3.23
2019-05-26T15:12:41.295Z,3.10
2019-05-26T15:15:10.699Z,3.10
2019-05-26T15:17:39.915Z,3.20
2019-05-26T15:20:09.099Z,2.90
2019-05-26T15:22:38.233Z,3.50
2019-05-26T15:25:26.848Z,2.80
2019-05-26T15:28:14.373Z,3.55
2019-05-26T15:30:44.513Z,3.23
2019-05-26T15:33:13.861Z,3.30
2019-05-26T15:35:44.997Z,2.77
2019-05-26T15:38:14.284Z,4.53
2019-05-26T15:40:52.309Z,4.40
2019-05-26T15:43:42.589Z,8.80
2019-05-26T15:46:24.085Z,4.10
2019-05-26T15:48:42.696Z,3.73
2019-05-26T15:51:12.278Z,3.43
2019-05-26T15:53:41.483Z,3.90
2019-05-26T15:56:10.622Z,4.40
2019-05-26T15:58:40.193Z,4.43
2019-05-26T16:01:09.610Z,3.07
2019-05-26T16:03:38.906Z,3.00
2019-05-26T16:06:08.024Z,3.07
2019-05-26T16:08:36.732Z,3.87
2019-05-26T16:11:05.764Z,3.20
2019-05-26T16:13:34.687Z,3.33
2019-05-26T16:16:03.430Z,2.80
2019-05-26T16:18:32.207Z,3.70
2019-05-26T16:21:04.156Z,3.30
2019-05-26T16:23:32.738Z,2.80
2019-05-26T16:26:01.419Z,3.27
2019-05-26T16:28:30.151Z,3.73
2019-05-26T16:30:59.339Z,7.57
2019-05-26T16:33:28.435Z,5.20
2019-05-26T16:35:57.666Z,3.60
2019-05-26T16:38:27.030Z,3.37
2019-05-26T16:40:59.492Z,3.00
2019-05-26T16:43:28.627Z,3.20
2019-05-26T16:45:57.746Z,3.27
2019-05-26T16:48:26.940Z,3.20
2019-05-26T16:50:56.214Z,3.70
2019-05-26T16:53:25.595Z,3.50
2019-05-26T16:55:54.941Z,3.90
2019-05-26T16:58:24.084Z,4.30
2019-05-26T17:00:53.192Z,4.93
2019-05-26T17:03:22.404Z,3.40
2019-05-26T17:06:05.264Z,3.27
2019-05-26T17:08:22.506Z,3.47
2019-05-26T17:10:51.645Z,3.67
2019-05-26T17:13:20.748Z,4.10
2019-05-26T17:15:49.854Z,4.20
2019-05-26T17:18:18.913Z,3.73
2019-05-26T17:20:48.074Z,4.17
2019-05-26T17:23:17.301Z,4.00
2019-05-26T17:25:46.536Z,4.40
2019-05-26T17:28:15.723Z,4.20
2019-05-26T17:30:45.119Z,4.90
2019-05-26T17:33:14.438Z,5.10
2019-05-26T17:35:45.350Z,4.83
2019-05-26T17:38:19.871Z,4.90
2019-05-26T17:40:49.848Z,5.70
2019-05-26T17:43:22.072Z,5.37
2019-05-26T17:45:57.222Z,6.23
2019-05-26T17:48:28.318Z,5.87
2019-05-26T17:50:59.779Z,5.70
2019-05-26T17:53:29.054Z,6.23
2019-05-26T17:55:58.165Z,6.03
2019-05-26T17:58:27.234Z,6.40
2019-05-26T18:00:58.374Z,5.33
2019-05-26T18:03:27.522Z,6.20
2019-05-26T18:05:56.611Z,5.30
